createdAt,value
2023-04-12T00:00:55.502Z,95.20
2023-04-12T00:03:22.477Z,95.40
2023-04-12T00:05:54.307Z,95.30
2023-04-12T00:08:26.571Z,95.20
2023-04-12T00:10:53.396Z,95.60
2023-04-12T00:13:20.224Z,95.60
2023-04-12T00:15:46.903Z,95.40
2023-04-12T00:18:13.594Z,95.50
2023-04-12T00:20:40.160Z,95.60
2023-04-12T00:23:07.049Z,95.60
2023-04-12T00:25:39.186Z,95.50
2023-04-12T00:28:06.254Z,95.40
2023-04-12T00:30:32.802Z,95.60
2023-04-12T00:32:59.546Z,95.50
2023-04-12T00:35:26.231Z,95.70
2023-04-12T00:37:52.865Z,95.60
2023-04-12T00:40:19.445Z,95.60
2023-04-12T00:42:46.172Z,95.50
2023-04-12T00:45:13.848Z,95.70
2023-04-12T00:47:43.280Z,95.50
2023-04-12T00:50:10.715Z,95.70
2023-04-12T00:52:39.036Z,96.10
2023-04-12T00:55:07.281Z,95.60
2023-04-12T00:57:39.313Z,95.80
2023-04-12T01:00:13.969Z,96.00
2023-04-12T01:02:49.082Z,96.10
2023-04-12T01:05:22.834Z,96.40
2023-04-12T01:08:11.962Z,96.60
2023-04-12T01:11:05.702Z,96.70
2023-04-12T01:13:39.565Z,97.20
2023-04-12T01:16:25.013Z,97.60
2023-04-12T01:18:53.999Z,98.40
2023-04-12T01:21:41.529Z,99.00
2023-04-12T01:24:36.075Z,99.70
2023-04-12T01:27:03.605Z,99.40
2023-04-12T01:29:31.358Z,99.90
2023-04-12T01:32:01.721Z,99.90
2023-04-12T01:34:33.460Z,99.90
2023-04-12T01:37:02.967Z,99.80
2023-04-12T01:39:30.927Z,99.90
2023-04-12T01:41:57.517Z,99.90
2023-04-12T01:44:25.729Z,99.90
2023-04-12T01:46:52.909Z,99.90
2023-04-12T01:49:20.391Z,99.90
2023-04-12T01:51:57.539Z,99.90
2023-04-12T01:54:30.095Z,99.90
2023-04-12T01:56:59.383Z,99.90
2023-04-12T01:59:30.625Z,99.90
2023-04-12T02:01:57.955Z,99.90
2023-04-12T02:04:27.504Z,99.90
2023-04-12T02:06:54.320Z,99.90
2023-04-12T02:09:22.410Z,99.90
2023-04-12T02:11:49.743Z,99.90
2023-04-12T02:14:16.508Z,99.90
2023-04-12T02:16:44.630Z,99.90
2023-04-12T02:19:14.542Z,99.90
2023-04-12T02:21:45.517Z,99.90
2023-04-12T02:24:12.848Z,99.90
2023-04-12T02:26:39.978Z,99.90
2023-04-12T02:29:08.904Z,99.90
2023-04-12T02:31:36.699Z,99.90
2023-04-12T02:34:03.414Z,99.90
2023-04-12T02:36:29.969Z,99.90
2023-04-12T02:38:56.760Z,99.90
2023-04-12T02:41:24.268Z,99.90
2023-04-12T02:43:51.165Z,99.90
2023-04-12T02:46:23.783Z,99.90
2023-04-12T02:48:51.005Z,99.90
2023-04-12T02:51:17.604Z,99.90
2023-04-12T02:53:44.325Z,99.90
2023-04-12T02:56:11.970Z,99.90
2023-04-12T02:58:39.836Z,99.90
2023-04-12T03:01:07.492Z,99.90
2023-04-12T03:03:37.275Z,99.90
2023-04-12T03:06:04.426Z,99.90
2023-04-12T03:08:31.082Z,99.90
2023-04-12T03:10:57.995Z,99.90
2023-04-12T03:13:24.703Z,99.90
2023-04-12T03:15:59.438Z,99.90
2023-04-12T03:18:26.422Z,99.90
2023-04-12T03:20:52.966Z,99.90
2023-04-12T03:23:20.397Z,99.90
2023-04-12T03:25:47.207Z,99.90
2023-04-12T03:28:13.836Z,99.90
2023-04-12T03:30:40.777Z,99.90
2023-04-12T03:33:07.542Z,99.90
2023-04-12T03:35:34.195Z,99.90
2023-04-12T03:38:00.811Z,99.90
2023-04-12T03:40:27.402Z,99.90
2023-04-12T03:42:53.974Z,99.90
2023-04-12T03:45:20.671Z,99.90
2023-04-12T03:47:47.295Z,99.90
2023-04-12T03:50:13.915Z,99.90
2023-04-12T03:52:40.613Z,99.90
2023-04-12T03:55:08.159Z,99.90
2023-04-12T03:57:35.229Z,99.90
2023-04-12T04:00:02.485Z,99.90
2023-04-12T04:02:31.727Z,99.90
2023-04-12T04:04:58.754Z,99.90
2023-04-12T04:07:25.648Z,99.90
2023-04-12T04:09:53.633Z,99.90
2023-04-12T04:12:20.369Z,99.90
2023-04-12T04:14:46.925Z,99.90
2023-04-12T04:17:13.500Z,99.90
2023-04-12T04:19:40.742Z,99.90
2023-04-12T04:22:07.356Z,99.90
2023-04-12T04:24:34.171Z,99.90
2023-04-12T04:27:00.867Z,99.90
2023-04-12T04:29:28.992Z,99.90
2023-04-12T04:31:57.300Z,99.90
2023-04-12T04:34:25.280Z,99.90
2023-04-12T04:36:52.667Z,99.90
2023-04-12T04:39:19.261Z,99.90
2023-04-12T04:41:46.511Z,99.90
2023-04-12T04:44:13.271Z,99.90
2023-04-12T04:46:40.049Z,99.90
2023-04-12T04:49:06.972Z,99.90
2023-04-12T04:51:33.580Z,99.90
2023-04-12T04:54:00.475Z,99.90
2023-04-12T04:56:27.071Z,99.90
2023-04-12T04:58:56.278Z,99.90
2023-04-12T05:01:28.068Z,99.90
2023-04-12T05:03:55.698Z,99.90
2023-04-12T05:06:22.935Z,99.90
2023-04-12T05:08:49.607Z,99.90
2023-04-12T05:11:16.362Z,99.90
2023-04-12T05:13:42.974Z,99.90
2023-04-12T05:16:10.073Z,99.90
2023-04-12T05:18:36.859Z,99.90
2023-04-12T05:21:04.142Z,99.90
2023-04-12T05:23:34.906Z,99.90
2023-04-12T05:26:01.524Z,99.90
2023-04-12T05:28:28.218Z,99.90
2023-04-12T05:30:54.858Z,99.90
2023-04-12T05:33:21.430Z,99.90
2023-04-12T05:35:48.021Z,99.90
2023-04-12T05:38:14.620Z,99.90
2023-04-12T05:40:43.772Z,99.90
2023-04-12T05:43:13.488Z,99.90
2023-04-12T05:45:41.420Z,99.90
2023-04-12T05:48:08.624Z,99.90
2023-04-12T05:50:35.759Z,99.90
2023-04-12T05:53:02.681Z,99.90
2023-04-12T05:55:29.896Z,99.90
2023-04-12T05:57:58.338Z,99.90
2023-04-12T06:00:24.939Z,99.90
2023-04-12T06:02:52.349Z,99.90
2023-04-12T06:05:19.245Z,99.90
2023-04-12T06:07:46.818Z,99.90
2023-04-12T06:10:16.123Z,99.90
2023-04-12T06:12:43.044Z,99.90
2023-04-12T06:15:10.227Z,99.90
2023-04-12T06:17:37.095Z,99.90
2023-04-12T06:20:10.470Z,99.90
2023-04-12T06:22:38.043Z,99.90
2023-04-12T06:25:05.215Z,99.90
2023-04-12T06:27:31.852Z,99.90
2023-04-12T06:29:59.095Z,99.90
2023-04-12T06:32:25.875Z,99.90
2023-04-12T06:34:52.946Z,99.90
2023-04-12T06:37:19.545Z,99.90
2023-04-12T06:39:46.166Z,99.90
2023-04-12T06:42:14.846Z,99.90
2023-04-12T06:44:41.945Z,99.90
2023-04-12T06:47:09.312Z,99.90
2023-04-12T06:49:36.078Z,99.90
2023-04-12T06:52:02.637Z,99.90
2023-04-12T06:54:29.285Z,99.90
2023-04-12T06:56:57.232Z,99.90
2023-04-12T06:59:23.812Z,99.90
2023-04-12T07:01:50.506Z,99.90
2023-04-12T07:04:17.182Z,99.90
2023-04-12T07:06:43.820Z,99.90
2023-04-12T07:09:10.423Z,99.90
2023-04-12T07:11:37.052Z,99.90
2023-04-12T07:14:03.967Z,99.90
2023-04-12T07:16:33.967Z,99.90
2023-04-12T07:19:00.965Z,99.90
2023-04-12T07:21:28.040Z,99.90
2023-04-12T07:23:55.677Z,99.90
2023-04-12T07:26:22.621Z,99.90
2023-04-12T07:28:49.278Z,99.90
2023-04-12T07:31:15.956Z,99.90
2023-04-12T07:33:43.417Z,99.90
2023-04-12T07:36:11.656Z,99.90
2023-04-12T07:38:38.283Z,99.90
2023-04-12T07:41:05.310Z,99.90
2023-04-12T07:43:32.118Z,99.90
2023-04-12T07:45:58.942Z,99.90
2023-04-12T07:48:25.614Z,99.90
2023-04-12T07:50:52.308Z,99.90
2023-04-12T07:53:23.850Z,99.90
2023-04-12T07:55:51.009Z,99.90
2023-04-12T07:58:18.195Z,99.90
2023-04-12T08:00:48.257Z,99.90
2023-04-12T08:03:16.688Z,99.90
2023-04-12T08:05:44.214Z,99.90
2023-04-12T08:08:11.676Z,99.90
2023-04-12T08:10:39.324Z,99.90
2023-04-12T08:13:07.499Z,99.90
2023-04-12T08:15:34.286Z,99.90
2023-04-12T08:18:01.917Z,99.90
2023-04-12T08:20:28.966Z,99.90
2023-04-12T08:22:55.659Z,99.90
2023-04-12T08:25:22.495Z,99.90
2023-04-12T08:27:50.961Z,99.90
2023-04-12T08:30:18.523Z,99.90
2023-04-12T08:32:45.289Z,99.90
2023-04-12T08:35:12.647Z,99.90
2023-04-12T08:37:39.219Z,99.90
2023-04-12T08:40:09.386Z,99.90
2023-04-12T08:42:37.261Z,99.90
2023-04-12T08:45:08.149Z,99.90
2023-04-12T08:47:36.779Z,99.90
2023-04-12T08:50:05.799Z,99.90
2023-04-12T08:52:34.675Z,99.90
2023-04-12T08:55:08.543Z,99.90
2023-04-12T08:57:36.028Z,99.90
2023-04-12T09:00:04.040Z,99.90
2023-04-12T09:02:31.301Z,99.90
2023-04-12T09:04:58.444Z,99.90
2023-04-12T09:07:28.648Z,99.90
2023-04-12T09:09:56.069Z,99.90
2023-04-12T09:12:24.270Z,99.90
2023-04-12T09:15:12.609Z,99.90
2023-04-12T09:17:41.436Z,99.90
2023-04-12T09:20:17.295Z,99.90
2023-04-12T09:22:46.032Z,99.90
2023-04-12T09:25:13.556Z,99.90
2023-04-12T09:27:50.696Z,99.90
2023-04-12T09:30:18.841Z,99.90
2023-04-12T09:32:46.052Z,99.90
2023-04-12T09:35:12.819Z,99.90
2023-04-12T09:37:40.168Z,99.90
2023-04-12T09:40:09.177Z,99.90
2023-04-12T09:42:52.464Z,99.90
2023-04-12T09:45:23.933Z,99.90
2023-04-12T09:47:51.217Z,99.90
2023-04-12T09:50:28.572Z,99.90
2023-04-12T09:52:56.619Z,99.90
2023-04-12T09:55:25.488Z,99.90
2023-04-12T09:57:53.907Z,99.90
2023-04-12T10:00:23.563Z,99.90
2023-04-12T10:02:53.223Z,99.90
2023-04-12T10:05:23.800Z,99.90
2023-04-12T10:07:51.130Z,99.90
2023-04-12T10:10:19.642Z,99.90
2023-04-12T10:12:48.003Z,99.90
2023-04-12T10:15:20.664Z,99.90
2023-04-12T10:17:51.000Z,99.90
2023-04-12T10:20:19.426Z,99.90
2023-04-12T10:22:53.159Z,99.90
2023-04-12T10:25:21.932Z,99.90
2023-04-12T10:27:51.888Z,99.90
2023-04-12T10:30:28.724Z,99.90
2023-04-12T10:33:09.997Z,99.90
2023-04-12T10:35:49.744Z,99.90
2023-04-12T10:38:17.381Z,99.90
2023-04-12T10:41:09.082Z,99.90
2023-04-12T10:43:35.980Z,99.90
2023-04-12T10:46:04.426Z,99.90
2023-04-12T10:48:51.832Z,99.90
2023-04-12T10:51:26.532Z,99.90
2023-04-12T10:53:54.397Z,99.90
2023-04-12T10:56:32.111Z,99.90
2023-04-12T10:59:04.285Z,99.90
2023-04-12T11:01:31.899Z,99.90
2023-04-12T11:04:09.052Z,99.90
2023-04-12T11:06:55.473Z,99.90
2023-04-12T11:09:26.176Z,99.90
2023-04-12T11:12:04.948Z,99.90
2023-04-12T11:14:42.707Z,99.90
2023-04-12T11:17:09.395Z,99.90
2023-04-12T11:19:49.028Z,99.90
2023-04-12T11:22:18.845Z,99.90
2023-04-12T11:24:46.581Z,99.90
2023-04-12T11:27:13.430Z,99.90
2023-04-12T11:29:40.530Z,99.90
2023-04-12T11:32:14.128Z,99.90
2023-04-12T11:34:43.247Z,99.90
2023-04-12T11:37:10.410Z,99.90
2023-04-12T11:39:41.190Z,99.90
2023-04-12T11:42:15.440Z,99.90
2023-04-12T11:44:56.173Z,99.90
2023-04-12T11:47:26.053Z,99.90
2023-04-12T11:49:54.746Z,99.90
2023-04-12T11:52:27.154Z,99.90
2023-04-12T11:54:56.404Z,99.90
2023-04-12T11:57:23.141Z,99.50
2023-04-12T11:59:50.190Z,99.90
2023-04-12T12:02:23.217Z,99.90
2023-04-12T12:04:51.142Z,99.90
2023-04-12T12:07:19.229Z,99.90
2023-04-12T12:09:46.740Z,99.90
2023-04-12T12:12:14.276Z,99.90
2023-04-12T12:14:43.375Z,99.30
2023-04-12T12:17:11.928Z,99.90
2023-04-12T12:19:40.915Z,99.70
2023-04-12T12:22:18.871Z,97.90
2023-04-12T12:24:46.897Z,98.00
2023-04-12T12:27:17.712Z,94.50
2023-04-12T12:29:44.419Z,76.70
2023-04-12T12:32:12.641Z,66.30
2023-04-12T12:34:41.068Z,64.70
2023-04-12T12:37:09.361Z,65.60
2023-04-12T12:39:36.340Z,66.20
2023-04-12T12:42:05.686Z,64.40
2023-04-12T12:44:35.483Z,66.10
2023-04-12T12:47:13.584Z,70.20
2023-04-12T12:49:41.391Z,73.50
2023-04-12T12:52:07.991Z,67.10
2023-04-12T12:54:40.719Z,61.50
2023-04-12T12:57:08.059Z,60.80
2023-04-12T12:59:34.780Z,61.10
2023-04-12T13:02:01.535Z,61.70
2023-04-12T13:04:28.837Z,64.60
2023-04-12T13:06:55.631Z,62.60
2023-04-12T13:09:22.304Z,64.90
2023-04-12T13:11:48.864Z,59.30
2023-04-12T13:14:15.448Z,58.20
2023-04-12T13:16:42.028Z,53.60
2023-04-12T13:19:08.653Z,50.30
2023-04-12T13:21:35.212Z,48.70
2023-04-12T13:24:02.027Z,46.80
2023-04-12T13:26:28.556Z,46.30
2023-04-12T13:28:55.161Z,48.40
2023-04-12T13:31:22.096Z,45.70
2023-04-12T13:33:48.702Z,44.30
2023-04-12T13:36:15.464Z,48.30
2023-04-12T13:38:42.032Z,44.40
2023-04-12T13:41:08.652Z,44.90
2023-04-12T13:43:35.301Z,43.20
2023-04-12T13:46:02.030Z,46.80
2023-04-12T13:48:28.951Z,45.00
2023-04-12T13:50:57.572Z,43.40
2023-04-12T13:53:24.151Z,46.10
2023-04-12T13:55:50.859Z,48.10
2023-04-12T13:58:18.622Z,49.30
2023-04-12T14:00:45.256Z,52.20
2023-04-12T14:03:11.942Z,52.40
2023-04-12T14:05:38.539Z,55.40
2023-04-12T14:08:05.144Z,58.80
2023-04-12T14:10:31.701Z,62.60
2023-04-12T14:12:58.281Z,70.80
2023-04-12T14:15:24.823Z,83.70
2023-04-12T14:17:51.659Z,89.40
2023-04-12T14:20:19.712Z,93.20
2023-04-12T14:22:46.410Z,96.10
2023-04-12T14:25:13.002Z,97.90
2023-04-12T14:27:39.637Z,99.40
2023-04-12T14:30:07.280Z,99.90
2023-04-12T14:32:34.262Z,99.90
2023-04-12T14:35:01.015Z,99.90
2023-04-12T14:37:27.639Z,99.90
2023-04-12T14:39:54.344Z,99.90
2023-04-12T14:42:21.097Z,99.90
2023-04-12T14:44:47.657Z,99.90
2023-04-12T14:47:14.194Z,99.90
2023-04-12T14:49:40.817Z,99.90
2023-04-12T14:52:07.886Z,99.90
2023-04-12T14:54:34.428Z,99.90
2023-04-12T14:57:00.981Z,99.90
2023-04-12T14:59:27.675Z,99.90
2023-04-12T15:01:54.388Z,99.90
2023-04-12T15:04:21.366Z,99.90
2023-04-12T15:06:48.034Z,99.90
2023-04-12T15:09:17.418Z,99.90
2023-04-12T15:11:46.109Z,99.90
2023-04-12T15:14:17.933Z,99.90
2023-04-12T15:16:46.745Z,99.90
2023-04-12T15:19:19.336Z,99.90
2023-04-12T15:21:47.191Z,99.90
2023-04-12T15:24:13.765Z,99.90
2023-04-12T15:26:40.363Z,99.90
2023-04-12T15:29:08.396Z,99.90
2023-04-12T15:31:35.027Z,99.90
2023-04-12T15:34:01.591Z,99.90
2023-04-12T15:36:36.900Z,99.90
2023-04-12T15:39:04.818Z,99.90
2023-04-12T15:41:34.622Z,99.90
2023-04-12T15:44:01.207Z,99.90
2023-04-12T15:46:27.882Z,99.90
2023-04-12T15:48:54.524Z,99.90
2023-04-12T15:51:21.372Z,99.90
2023-04-12T15:53:47.955Z,99.90
2023-04-12T15:56:16.996Z,99.90
2023-04-12T15:58:44.866Z,99.90
2023-04-12T16:01:11.984Z,99.90
2023-04-12T16:03:38.807Z,99.90
2023-04-12T16:06:06.096Z,99.90
2023-04-12T16:08:32.663Z,99.60
2023-04-12T16:10:59.289Z,98.30
2023-04-12T16:13:25.875Z,99.60
2023-04-12T16:15:52.563Z,99.40
2023-04-12T16:18:19.198Z,98.40
2023-04-12T16:20:46.285Z,97.70
2023-04-12T16:23:13.401Z,97.70
2023-04-12T16:25:40.237Z,98.10
2023-04-12T16:28:07.700Z,98.20
2023-04-12T16:30:35.052Z,98.50
2023-04-12T16:33:01.917Z,98.50
2023-04-12T16:35:28.574Z,99.30
2023-04-12T16:37:55.415Z,99.70
2023-04-12T16:40:22.105Z,99.20
2023-04-12T16:42:48.665Z,99.30
2023-04-12T16:45:15.357Z,99.10
2023-04-12T16:47:42.192Z,99.30
2023-04-12T16:50:09.512Z,99.90
2023-04-12T16:52:36.750Z,99.90
2023-04-12T16:55:04.133Z,99.90
2023-04-12T16:57:30.980Z,99.90
2023-04-12T17:00:00.455Z,99.90
2023-04-12T17:02:27.236Z,99.90
2023-04-12T17:04:53.976Z,99.90
2023-04-12T17:07:20.611Z,99.90
2023-04-12T17:09:47.190Z,99.90
2023-04-12T17:12:13.971Z,99.90
2023-04-12T17:14:40.551Z,99.90
2023-04-12T17:17:07.282Z,99.90
2023-04-12T17:19:33.971Z,99.90
2023-04-12T17:22:00.784Z,99.90
2023-04-12T17:24:28.556Z,99.90
2023-04-12T17:26:55.186Z,99.90
2023-04-12T17:29:21.756Z,99.90
2023-04-12T17:31:50.620Z,99.90
2023-04-12T17:34:19.839Z,99.90
2023-04-12T17:36:46.700Z,99.90
2023-04-12T17:39:13.310Z,99.90
2023-04-12T17:41:40.224Z,99.90
2023-04-12T17:44:07.714Z,99.90
2023-04-12T17:46:35.263Z,99.90
2023-04-12T17:49:05.299Z,99.90
2023-04-12T17:51:32.139Z,99.90
2023-04-12T17:54:00.197Z,99.90
2023-04-12T17:56:26.796Z,99.90
2023-04-12T17:58:53.368Z,99.90
2023-04-12T18:01:20.035Z,99.90
2023-04-12T18:03:47.656Z,99.90
2023-04-12T18:06:14.903Z,99.90
2023-04-12T18:08:41.465Z,99.90
2023-04-12T18:11:08.050Z,99.90
2023-04-12T18:13:34.643Z,99.90
2023-04-12T18:16:01.502Z,99.90
2023-04-12T18:18:28.201Z,99.90
2023-04-12T18:20:54.809Z,99.90
2023-04-12T18:23:21.466Z,99.90
2023-04-12T18:25:48.192Z,99.90
2023-04-12T18:28:14.952Z,99.90
2023-04-12T18:30:41.579Z,99.90
2023-04-12T18:33:08.480Z,99.90
2023-04-12T18:35:37.186Z,99.90
2023-04-12T18:38:03.765Z,99.90
2023-04-12T18:40:30.388Z,99.90
2023-04-12T18:42:56.934Z,99.90
2023-04-12T18:45:23.787Z,99.90
2023-04-12T18:47:51.417Z,99.90
2023-04-12T18:50:19.455Z,99.90
2023-04-12T18:52:46.085Z,99.90
2023-04-12T18:55:13.237Z,99.90
2023-04-12T18:57:40.146Z,99.90
2023-04-12T19:00:13.431Z,99.90
2023-04-12T19:02:40.896Z,99.90
2023-04-12T19:05:10.135Z,99.90
2023-04-12T19:07:37.405Z,99.90
2023-04-12T19:10:04.751Z,99.90
2023-04-12T19:12:31.932Z,99.90
2023-04-12T19:14:58.741Z,99.90
2023-04-12T19:17:27.690Z,99.90
2023-04-12T19:19:54.871Z,99.90
2023-04-12T19:22:21.605Z,99.90
2023-04-12T19:24:49.767Z,99.90
2023-04-12T19:27:16.710Z,99.90
2023-04-12T19:29:43.958Z,99.90
2023-04-12T19:32:13.687Z,99.90
2023-04-12T19:34:40.765Z,99.90
2023-04-12T19:37:07.942Z,99.90
2023-04-12T19:39:34.774Z,99.90
2023-04-12T19:42:02.186Z,99.90
2023-04-12T19:44:29.145Z,99.90
2023-04-12T19:46:55.997Z,99.90
2023-04-12T19:49:23.667Z,99.90
2023-04-12T19:51:50.801Z,99.90
2023-04-12T19:54:18.848Z,99.90
2023-04-12T19:56:46.416Z,99.90
2023-04-12T19:59:13.300Z,99.90
2023-04-12T20:01:48.911Z,99.90
2023-04-12T20:04:19.790Z,99.90
2023-04-12T20:06:47.096Z,99.90
2023-04-12T20:09:14.663Z,99.90
2023-04-12T20:11:41.465Z,99.90
2023-04-12T20:14:08.191Z,99.90
2023-04-12T20:16:36.632Z,99.90
2023-04-12T20:19:04.770Z,99.90
2023-04-12T20:21:33.998Z,99.90
2023-04-12T20:24:02.025Z,99.90
2023-04-12T20:26:31.969Z,99.90
2023-04-12T20:28:59.844Z,99.90
2023-04-12T20:31:26.977Z,99.90
2023-04-12T20:33:57.029Z,99.90
2023-04-12T20:36:26.783Z,99.90
2023-04-12T20:38:53.834Z,99.90
2023-04-12T20:41:20.382Z,99.90
2023-04-12T20:43:47.920Z,99.90
2023-04-12T20:46:17.030Z,99.90
2023-04-12T20:48:44.487Z,99.90
2023-04-12T20:51:11.718Z,99.90
2023-04-12T20:53:38.360Z,99.90
2023-04-12T20:56:05.249Z,99.90
2023-04-12T20:58:34.745Z,99.90
2023-04-12T21:01:05.046Z,99.90
2023-04-12T21:03:35.897Z,99.90
2023-04-12T21:06:02.828Z,99.90
2023-04-12T21:08:31.512Z,99.90
2023-04-12T21:10:58.645Z,99.90
2023-04-12T21:13:26.315Z,99.90
2023-04-12T21:15:53.859Z,99.90
2023-04-12T21:18:21.051Z,99.90
2023-04-12T21:20:48.479Z,99.90
2023-04-12T21:23:16.579Z,99.90
2023-04-12T21:25:43.888Z,99.90
2023-04-12T21:28:12.024Z,99.90
2023-04-12T21:30:39.388Z,99.90
2023-04-12T21:33:06.029Z,99.90
2023-04-12T21:35:32.698Z,99.90
2023-04-12T21:37:59.232Z,99.90
2023-04-12T21:40:26.284Z,99.90
2023-04-12T21:42:53.126Z,99.90
2023-04-12T21:45:19.846Z,99.90
2023-04-12T21:47:46.428Z,99.90
2023-04-12T21:50:13.021Z,99.90
2023-04-12T21:52:41.063Z,99.90
2023-04-12T21:55:08.012Z,99.90
2023-04-12T21:57:35.749Z,99.90
2023-04-12T22:00:05.166Z,99.90
2023-04-12T22:02:31.792Z,99.90
2023-04-12T22:04:58.468Z,99.90
2023-04-12T22:07:25.246Z,99.90
2023-04-12T22:09:53.472Z,99.90
2023-04-12T22:12:21.079Z,99.90
2023-04-12T22:14:49.624Z,99.90
2023-04-12T22:17:18.190Z,99.90
2023-04-12T22:19:45.220Z,99.90
2023-04-12T22:22:11.978Z,99.90
2023-04-12T22:24:38.705Z,99.90
2023-04-12T22:27:06.997Z,99.90
2023-04-12T22:29:34.148Z,99.90
2023-04-12T22:32:02.088Z,99.90
2023-04-12T22:34:28.645Z,99.90
2023-04-12T22:37:02.676Z,99.90
2023-04-12T22:39:31.482Z,99.90
2023-04-12T22:41:59.277Z,99.90
2023-04-12T22:44:27.000Z,99.90
2023-04-12T22:46:56.622Z,99.90
2023-04-12T22:49:27.174Z,99.90
2023-04-12T22:51:57.343Z,99.90
2023-04-12T22:54:24.723Z,99.90
2023-04-12T22:56:52.079Z,99.90
2023-04-12T22:59:19.995Z,99.90
2023-04-12T23:01:47.272Z,99.90
2023-04-12T23:04:15.609Z,99.90
2023-04-12T23:06:43.525Z,99.90
2023-04-12T23:09:11.682Z,99.90
2023-04-12T23:11:40.618Z,99.90
2023-04-12T23:14:08.182Z,99.90
2023-04-12T23:16:35.325Z,99.90
2023-04-12T23:19:03.652Z,99.90
2023-04-12T23:21:30.624Z,99.90
2023-04-12T23:23:57.476Z,99.90
2023-04-12T23:26:24.568Z,99.90
2023-04-12T23:28:51.970Z,99.90
2023-04-12T23:31:18.669Z,99.90
2023-04-12T23:33:45.690Z,99.90
2023-04-12T23:36:12.637Z,99.90
2023-04-12T23:38:40.542Z,99.90
2023-04-12T23:41:09.968Z,99.90
2023-04-12T23:43:36.946Z,99.90
2023-04-12T23:46:04.528Z,99.90
2023-04-12T23:48:32.287Z,99.90
2023-04-12T23:50:59.765Z,99.90
2023-04-12T23:53:26.522Z,99.90
2023-04-12T23:55:53.399Z,99.90
2023-04-12T23:58:20.693Z,99.90
